Pagrindinis puslapis
METAR-TAF:

METAR-TAF

Oro uostai :

Kešmas, Iranas

platuma: 26-45-18N, ilguma: 055-54-08E, Aukštis: 12 m

Dabartinis oras

Ataskaita buvo paskelbta 38 minutes, ne 23:00 UTC
Vėjas 4 kt iš Rytų
Temperatūra 28°C
Drėgmė 84%
Slėgis 1003 hPa
Matomumas 10 km arba daugiau
nėra debesų žemiau 1500 m ir nėra kamuolinių lietaus debesų

METAR: OIKQ 232300Z 10004KT CAVOK 28/25 Q1003

Laikas: 03:08 (23:38 UTC)


TAF: trūkstamas

Orai ataskaitas ir orų prognozės (METAR, TAF).

turimą stotys yra geltonos ir raudonos taškus žemėlapyje.

Perkelti pele per norėdami pamatyti stoties vardą.

Tada spustelėkite, norėdami matyti oro stebėjimo ir prognozės.

Norėdami pakeisti žemėlapį: spustelėkite ant žalios mygtukų su juodo kryžiaus žemyn,; žalią mygtuką su brūkšneliu, jei norite nutolinti; arba žalių rodyklių gretimoms žemėlapius.


METAR-TAF: